Time;durP1;ratioP1;P1;durP2;ratioP2;P2;SDS_P1;SDS_P2;PMS_P1;PMS_P2;Temp;Humidity;BMP_temperature;BMP_pressure;BME280_temperature;BME280_humidity;BME280_pressure;Samples;Min_cycle;Max_cycle;Signal;HPM_P1;HPM_P2
2022/02/22 00:00:48;;;;;;;6.67;5.30;;;;;;;;;;5012235;28;20087;-55
2022/02/22 00:03:14;;;;;;;6.95;5.38;;;;;;;;;;5003346;28;20273;-56
2022/02/22 00:05:39;;;;;;;7.60;5.07;;;;;;;;;;5002478;28;20427;-56
2022/02/22 00:08:05;;;;;;;8.23;5.87;;;;;;;;;;5002628;28;20327;-56
2022/02/22 00:10:30;;;;;;;8.07;5.70;;;;;;;;;;5001564;28;20315;-56
2022/02/22 00:12:55;;;;;;;8.13;5.43;;;;;;;;;;5002083;28;20523;-56
2022/02/22 00:15:20;;;;;;;7.55;5.50;;;;;;;;;;5002642;28;20046;-56
2022/02/22 00:17:46;;;;;;;7.25;5.47;;;;;;;;;;5001508;28;20026;-59
2022/02/22 00:20:12;;;;;;;8.67;5.93;;;;;;;;;;5003080;28;20057;-59
2022/02/22 00:22:37;;;;;;;7.47;5.22;;;;;;;;;;5003027;28;20348;-59
2022/02/22 00:25:04;;;;;;;8.32;5.40;;;;;;;;;;5002417;28;20033;-59
2022/02/22 00:27:29;;;;;;;8.82;5.55;;;;;;;;;;4986184;28;20018;-60
2022/02/22 00:29:54;;;;;;;8.93;5.87;;;;;;;;;;5001648;28;20034;-60
2022/02/22 00:32:19;;;;;;;8.57;5.73;;;;;;;;;;5002946;28;20315;-60
2022/02/22 00:34:45;;;;;;;8.07;5.63;;;;;;;;;;5002071;28;20335;-60
2022/02/22 00:37:10;;;;;;;8.65;5.80;;;;;;;;;;5002593;28;20037;-59
2022/02/22 00:39:35;;;;;;;8.05;5.88;;;;;;;;;;5002116;28;20479;-59
2022/02/22 00:42:00;;;;;;;8.32;5.70;;;;;;;;;;5001941;28;20032;-59
2022/02/22 00:44:27;;;;;;;8.37;5.80;;;;;;;;;;5002228;28;20022;-59
2022/02/22 00:46:52;;;;;;;8.25;5.95;;;;;;;;;;5002198;28;20269;-59
2022/02/22 00:49:17;;;;;;;9.05;6.18;;;;;;;;;;5002231;28;20057;-59
2022/02/22 00:51:43;;;;;;;9.00;5.90;;;;;;;;;;5001848;28;20072;-59
2022/02/22 00:54:08;;;;;;;9.20;6.80;;;;;;;;;;5001402;28;20338;-58
2022/02/22 00:56:33;;;;;;;9.20;6.07;;;;;;;;;;5001358;28;20771;-63
2022/02/22 00:58:58;;;;;;;9.27;6.20;;;;;;;;;;5002159;28;20040;-60
2022/02/22 01:01:24;;;;;;;8.30;6.10;;;;;;;;;;4984588;28;20504;-60
2022/02/22 01:03:49;;;;;;;9.07;6.20;;;;;;;;;;4999907;28;20041;-57
2022/02/22 01:06:14;;;;;;;9.03;6.10;;;;;;;;;;4982565;28;20049;-57
2022/02/22 01:08:39;;;;;;;8.75;6.30;;;;;;;;;;4981901;28;20030;-61
2022/02/22 01:11:05;;;;;;;9.45;6.07;;;;;;;;;;4994204;28;20041;-57
2022/02/22 01:13:30;;;;;;;9.20;6.40;;;;;;;;;;5002316;28;20034;-60
2022/02/22 01:15:55;;;;;;;9.68;6.90;;;;;;;;;;5002672;28;20025;-58
2022/02/22 01:18:22;;;;;;;9.93;6.80;;;;;;;;;;4995809;28;20026;-59
2022/02/22 01:20:47;;;;;;;9.73;6.53;;;;;;;;;;4991744;28;20856;-60
2022/02/22 01:23:12;;;;;;;9.00;6.60;;;;;;;;;;5001511;28;20116;-60
2022/02/22 01:25:38;;;;;;;8.53;6.37;;;;;;;;;;5002173;28;20083;-61
2022/02/22 01:28:03;;;;;;;8.93;6.37;;;;;;;;;;5001754;28;20311;-59
2022/02/22 01:30:28;;;;;;;7.20;5.60;;;;;;;;;;5008834;28;20292;-58
2022/02/22 01:32:53;;;;;;;8.33;6.07;;;;;;;;;;5005676;28;20068;-58
2022/02/22 01:35:19;;;;;;;8.97;6.50;;;;;;;;;;4991501;28;20273;-59
2022/02/22 01:37:44;;;;;;;8.43;5.90;;;;;;;;;;5001155;28;20272;-60
2022/02/22 01:40:09;;;;;;;8.83;6.53;;;;;;;;;;5001406;28;20264;-59
2022/02/22 01:42:35;;;;;;;9.15;6.47;;;;;;;;;;4982893;28;20261;-58
2022/02/22 01:45:00;;;;;;;8.07;5.95;;;;;;;;;;5000572;28;20274;-58
2022/02/22 01:47:25;;;;;;;8.63;6.00;;;;;;;;;;5001205;28;20038;-60
2022/02/22 01:49:51;;;;;;;9.93;6.65;;;;;;;;;;5000711;28;20025;-57
2022/02/22 01:52:16;;;;;;;8.77;6.40;;;;;;;;;;5001325;28;20034;-57
2022/02/22 01:54:42;;;;;;;9.98;6.25;;;;;;;;;;5000369;28;20279;-58
2022/02/22 01:57:07;;;;;;;9.83;6.70;;;;;;;;;;5000523;28;20499;-59
2022/02/22 01:59:32;;;;;;;9.20;6.05;;;;;;;;;;5000867;28;20324;-60
2022/02/22 02:01:57;;;;;;;9.37;6.60;;;;;;;;;;5001160;28;20064;-60
2022/02/22 02:04:28;;;;;;;8.67;6.33;;;;;;;;;;4983091;28;20275;-59
2022/02/22 02:06:54;;;;;;;9.60;6.80;;;;;;;;;;5000979;28;20276;-56
2022/02/22 02:09:19;;;;;;;10.30;6.70;;;;;;;;;;5000699;28;20467;-59
2022/02/22 02:11:44;;;;;;;8.47;6.53;;;;;;;;;;5000321;28;20053;-56
2022/02/22 02:14:09;;;;;;;8.47;5.83;;;;;;;;;;5000723;28;20292;-60
2022/02/22 02:16:35;;;;;;;8.80;6.50;;;;;;;;;;5000816;28;20048;-59
2022/02/22 02:19:00;;;;;;;9.70;6.70;;;;;;;;;;5000431;28;20269;-56
2022/02/22 02:21:25;;;;;;;7.77;5.97;;;;;;;;;;5001135;28;20057;-57
2022/02/22 02:23:50;;;;;;;9.03;6.30;;;;;;;;;;5000064;28;20800;-60
2022/02/22 02:26:16;;;;;;;9.10;6.17;;;;;;;;;;5000297;28;20866;-60
2022/02/22 02:28:41;;;;;;;9.00;6.73;;;;;;;;;;5000744;28;20269;-60
2022/02/22 02:31:06;;;;;;;9.50;6.40;;;;;;;;;;5000901;28;20025;-60
2022/02/22 02:33:31;;;;;;;8.83;6.63;;;;;;;;;;4999975;28;20291;-55
2022/02/22 02:35:56;;;;;;;9.07;6.00;;;;;;;;;;5000201;28;20724;-56
2022/02/22 02:38:22;;;;;;;8.95;6.45;;;;;;;;;;5000350;28;20630;-60
2022/02/22 02:40:47;;;;;;;8.20;5.93;;;;;;;;;;5001062;28;20030;-57
2022/02/22 02:43:12;;;;;;;8.57;6.13;;;;;;;;;;4999856;28;20271;-60
2022/02/22 02:45:37;;;;;;;9.10;6.25;;;;;;;;;;5000255;28;20409;-60
2022/02/22 02:48:03;;;;;;;8.65;5.97;;;;;;;;;;5001024;28;20038;-59
2022/02/22 02:50:28;;;;;;;9.32;6.47;;;;;;;;;;5000298;28;20038;-57
2022/02/22 02:52:53;;;;;;;7.60;6.07;;;;;;;;;;5000209;28;20069;-60
2022/02/22 02:55:18;;;;;;;8.47;6.00;;;;;;;;;;5000998;28;20068;-56
2022/02/22 02:57:44;;;;;;;8.37;5.70;;;;;;;;;;4984087;28;20269;-59
2022/02/22 03:00:09;;;;;;;8.63;6.28;;;;;;;;;;5015515;28;20014;-60
2022/02/22 03:02:34;;;;;;;9.27;6.03;;;;;;;;;;5000513;28;20500;-59
2022/02/22 03:05:01;;;;;;;8.47;5.83;;;;;;;;;;5000400;28;20140;-57
2022/02/22 03:07:26;;;;;;;8.73;6.30;;;;;;;;;;5000335;28;20272;-59
2022/02/22 03:09:52;;;;;;;7.35;5.72;;;;;;;;;;5000246;28;20029;-56
2022/02/22 03:12:17;;;;;;;8.80;6.43;;;;;;;;;;5000052;28;20786;-56
2022/02/22 03:14:42;;;;;;;8.83;5.87;;;;;;;;;;5000358;28;20315;-57
2022/02/22 03:17:07;;;;;;;10.03;6.87;;;;;;;;;;5000045;28;20424;-60
2022/02/22 03:19:32;;;;;;;9.23;6.33;;;;;;;;;;4991635;28;20397;-59
2022/02/22 03:21:58;;;;;;;8.60;5.90;;;;;;;;;;4980795;28;20277;-59
2022/02/22 03:24:23;;;;;;;9.03;6.10;;;;;;;;;;4980796;28;20277;-60
2022/02/22 03:26:48;;;;;;;7.47;5.83;;;;;;;;;;4980840;28;20274;-60
2022/02/22 03:29:13;;;;;;;7.93;5.67;;;;;;;;;;4981775;28;20034;-60
2022/02/22 03:31:38;;;;;;;8.20;5.87;;;;;;;;;;4980427;28;20297;-60
2022/02/22 03:34:04;;;;;;;8.37;6.00;;;;;;;;;;4980459;28;20023;-60
2022/02/22 03:36:29;;;;;;;8.18;5.97;;;;;;;;;;4987068;28;20261;-59
2022/02/22 03:38:54;;;;;;;9.18;6.45;;;;;;;;;;5000176;28;20026;-56
2022/02/22 03:41:20;;;;;;;8.45;6.40;;;;;;;;;;5000088;28;20018;-59
2022/02/22 03:43:45;;;;;;;8.55;5.78;;;;;;;;;;4949295;28;20022;-57
2022/02/22 03:46:10;;;;;;;8.73;6.00;;;;;;;;;;5003526;28;20096;-58
2022/02/22 03:48:36;;;;;;;7.60;5.47;;;;;;;;;;5003436;28;20050;-61
2022/02/22 03:51:01;;;;;;;8.30;5.97;;;;;;;;;;5003731;28;20131;-57
2022/02/22 03:53:26;;;;;;;7.60;5.20;;;;;;;;;;5002293;28;20759;-56
2022/02/22 03:55:51;;;;;;;7.33;5.60;;;;;;;;;;4982606;28;20284;-56
2022/02/22 03:58:16;;;;;;;7.43;5.47;;;;;;;;;;5002418;28;20036;-56
2022/02/22 04:00:42;;;;;;;7.33;5.33;;;;;;;;;;5001576;28;20496;-57
2022/02/22 04:03:09;;;;;;;8.10;5.27;;;;;;;;;;5001740;28;20212;-56
2022/02/22 04:05:34;;;;;;;8.60;5.28;;;;;;;;;;5002744;28;20838;-57
2022/02/22 04:07:59;;;;;;;7.30;5.40;;;;;;;;;;5002472;28;20018;-56
2022/02/22 04:10:24;;;;;;;7.10;4.93;;;;;;;;;;4997895;28;20487;-56
2022/02/22 04:12:50;;;;;;;6.83;5.07;;;;;;;;;;4984135;28;20286;-57
2022/02/22 04:15:15;;;;;;;7.72;5.28;;;;;;;;;;4982664;28;20363;-57
2022/02/22 04:17:40;;;;;;;5.80;4.67;;;;;;;;;;4982656;28;20022;-57
2022/02/22 04:20:06;;;;;;;7.43;5.20;;;;;;;;;;5000193;28;20257;-59
2022/02/22 04:22:31;;;;;;;7.65;5.13;;;;;;;;;;5002080;28;20024;-58
2022/02/22 04:24:56;;;;;;;6.40;4.90;;;;;;;;;;5002746;28;20424;-57
2022/02/22 04:27:22;;;;;;;6.50;4.70;;;;;;;;;;5002034;28;20037;-57
2022/02/22 04:29:47;;;;;;;6.70;4.90;;;;;;;;;;5002437;28;20789;-57
2022/02/22 04:32:12;;;;;;;7.30;5.33;;;;;;;;;;5002702;28;20305;-57
2022/02/22 04:34:37;;;;;;;7.13;4.80;;;;;;;;;;5002244;28;20030;-59
2022/02/22 04:37:03;;;;;;;7.40;5.40;;;;;;;;;;5002454;28;20088;-57
2022/02/22 04:39:28;;;;;;;7.38;5.45;;;;;;;;;;5002291;28;20034;-57
2022/02/22 04:41:53;;;;;;;6.57;4.90;;;;;;;;;;5001979;28;20029;-56
2022/02/22 04:44:18;;;;;;;6.70;4.95;;;;;;;;;;4996935;28;20019;-56
2022/02/22 04:46:44;;;;;;;6.40;5.03;;;;;;;;;;4998645;28;20444;-56
2022/02/22 04:49:09;;;;;;;6.87;4.80;;;;;;;;;;5001829;28;20046;-56
2022/02/22 04:51:38;;;;;;;6.28;4.53;;;;;;;;;;4986742;28;20556;-57
2022/02/22 04:54:04;;;;;;;6.53;4.80;;;;;;;;;;4964878;28;20030;-56
2022/02/22 04:56:29;;;;;;;6.10;4.60;;;;;;;;;;4964362;28;20022;-56
2022/02/22 04:58:55;;;;;;;7.10;5.07;;;;;;;;;;5002244;28;20026;-56
2022/02/22 05:01:21;;;;;;;7.78;5.05;;;;;;;;;;5007456;28;20104;-57
2022/02/22 05:03:46;;;;;;;6.47;4.85;;;;;;;;;;4995655;28;20017;-56
2022/02/22 05:06:11;;;;;;;5.67;4.80;;;;;;;;;;4999419;28;20014;-55
2022/02/22 05:08:37;;;;;;;6.43;4.70;;;;;;;;;;5001961;28;20265;-56
2022/02/22 05:11:02;;;;;;;7.17;5.10;;;;;;;;;;5001480;28;20029;-56
2022/02/22 05:13:27;;;;;;;6.17;4.30;;;;;;;;;;5001453;28;20038;-57
2022/02/22 05:15:52;;;;;;;6.33;4.90;;;;;;;;;;5001549;28;20264;-55
2022/02/22 05:18:18;;;;;;;5.97;4.57;;;;;;;;;;5001568;28;20291;-56
2022/02/22 05:20:54;;;;;;;6.67;4.83;;;;;;;;;;5001614;28;20022;-56
2022/02/22 05:23:22;;;;;;;6.72;4.70;;;;;;;;;;5001287;28;20273;-56
2022/02/22 05:25:47;;;;;;;5.68;4.72;;;;;;;;;;5001349;28;20400;-56
2022/02/22 05:28:13;;;;;;;5.37;4.43;;;;;;;;;;5000921;28;20040;-58
2022/02/22 05:30:38;;;;;;;5.40;4.10;;;;;;;;;;5001559;28;20044;-58
2022/02/22 05:33:03;;;;;;;5.90;4.47;;;;;;;;;;5001230;28;20806;-57
2022/02/22 05:35:29;;;;;;;6.10;4.78;;;;;;;;;;5000814;28;20285;-57
2022/02/22 05:37:54;;;;;;;5.90;4.67;;;;;;;;;;4959607;28;20357;-56
2022/02/22 05:40:19;;;;;;;6.03;4.40;;;;;;;;;;4997493;28;20651;-58
2022/02/22 05:42:44;;;;;;;5.47;4.43;;;;;;;;;;4991602;28;20632;-56
2022/02/22 05:45:10;;;;;;;6.73;4.80;;;;;;;;;;4992803;28;20034;-57
2022/02/22 05:47:35;;;;;;;5.50;4.50;;;;;;;;;;5001465;28;20160;-58
2022/02/22 05:50:00;;;;;;;5.43;4.13;;;;;;;;;;4999474;28;20041;-58
2022/02/22 05:52:25;;;;;;;5.83;4.33;;;;;;;;;;4994598;28;20054;-57
2022/02/22 05:54:50;;;;;;;5.83;4.63;;;;;;;;;;4981444;28;20277;-58
2022/02/22 05:57:16;;;;;;;5.80;4.33;;;;;;;;;;4981206;28;20320;-59
2022/02/22 05:59:41;;;;;;;6.00;4.43;;;;;;;;;;5013236;28;20120;-58
2022/02/22 06:02:06;;;;;;;7.90;4.87;;;;;;;;;;5000597;28;20129;-57
2022/02/22 06:04:31;;;;;;;5.77;4.23;;;;;;;;;;5000308;28;20030;-58
2022/02/22 06:06:57;;;;;;;6.27;4.53;;;;;;;;;;5000788;28;20316;-59
2022/02/22 06:09:22;;;;;;;6.15;4.30;;;;;;;;;;5000834;28;20327;-61
2022/02/22 06:11:48;;;;;;;6.17;4.50;;;;;;;;;;5000550;28;20073;-58
2022/02/22 06:14:14;;;;;;;5.80;4.18;;;;;;;;;;4997119;28;20289;-63
2022/02/22 06:16:39;;;;;;;5.00;3.92;;;;;;;;;;4996970;28;20111;-58
2022/02/22 06:19:04;;;;;;;6.10;4.37;;;;;;;;;;4997357;28;20559;-59
2022/02/22 06:21:29;;;;;;;5.17;4.13;;;;;;;;;;4999573;28;20136;-58
2022/02/22 06:23:55;;;;;;;6.18;4.22;;;;;;;;;;4999496;28;20101;-61
2022/02/22 06:26:20;;;;;;;5.25;3.90;;;;;;;;;;4981897;28;20550;-58
2022/02/22 06:28:46;;;;;;;4.80;3.80;;;;;;;;;;4997188;28;20471;-58
2022/02/22 06:31:11;;;;;;;6.75;3.80;;;;;;;;;;4999572;28;20301;-58
2022/02/22 06:33:36;;;;;;;4.87;3.83;;;;;;;;;;4999628;28;20509;-58
2022/02/22 06:36:01;;;;;;;4.93;3.97;;;;;;;;;;4997159;28;20355;-59
2022/02/22 06:38:27;;;;;;;4.90;3.90;;;;;;;;;;4999623;28;20121;-58
2022/02/22 06:40:52;;;;;;;4.37;3.53;;;;;;;;;;5000120;28;20280;-58
2022/02/22 06:43:17;;;;;;;5.10;3.57;;;;;;;;;;4999283;28;20021;-60
2022/02/22 06:45:42;;;;;;;4.10;3.37;;;;;;;;;;5000619;28;20382;-58
2022/02/22 06:48:08;;;;;;;4.70;3.63;;;;;;;;;;4981413;28;20285;-57
2022/02/22 06:50:34;;;;;;;5.07;3.80;;;;;;;;;;4978042;28;20297;-56
2022/02/22 06:53:00;;;;;;;4.78;3.58;;;;;;;;;;5000538;28;20339;-58
2022/02/22 06:55:25;;;;;;;4.63;3.33;;;;;;;;;;4986662;28;20509;-57
2022/02/22 06:57:51;;;;;;;5.63;3.50;;;;;;;;;;4984645;28;20265;-60
2022/02/22 07:00:18;;;;;;;4.55;3.28;;;;;;;;;;5000661;28;20479;-59
2022/02/22 07:02:43;;;;;;;5.10;3.67;;;;;;;;;;4999986;28;20036;-56
2022/02/22 07:05:08;;;;;;;5.25;4.00;;;;;;;;;;4998451;28;20018;-56
2022/02/22 07:07:34;;;;;;;5.45;3.35;;;;;;;;;;4981501;28;20029;-57
2022/02/22 07:09:59;;;;;;;5.15;3.47;;;;;;;;;;4998055;28;20045;-58
2022/02/22 07:12:24;;;;;;;4.65;3.20;;;;;;;;;;4980536;28;20052;-58
2022/02/22 07:14:49;;;;;;;4.87;3.50;;;;;;;;;;5000207;28;20026;-58
2022/02/22 07:17:15;;;;;;;4.40;3.47;;;;;;;;;;5000181;28;20040;-56
2022/02/22 07:19:40;;;;;;;4.20;3.40;;;;;;;;;;5000403;28;20546;-57
2022/02/22 07:22:05;;;;;;;4.65;3.42;;;;;;;;;;5002723;28;20460;-57
2022/02/22 07:24:31;;;;;;;5.10;3.60;;;;;;;;;;4985517;28;20056;-56
2022/02/22 07:26:56;;;;;;;4.50;3.35;;;;;;;;;;4997671;28;20273;-57
2022/02/22 07:29:22;;;;;;;5.43;3.63;;;;;;;;;;5003075;28;20022;-57
2022/02/22 07:31:47;;;;;;;3.83;3.23;;;;;;;;;;5002205;28;20045;-57
2022/02/22 07:34:12;;;;;;;4.57;3.05;;;;;;;;;;4992245;28;20092;-57
2022/02/22 07:36:38;;;;;;;4.27;2.90;;;;;;;;;;4983147;28;20497;-57
2022/02/22 07:39:05;;;;;;;4.25;3.20;;;;;;;;;;4985168;28;20034;-58
2022/02/22 07:41:30;;;;;;;5.25;3.33;;;;;;;;;;4988135;28;20113;-57
2022/02/22 07:43:55;;;;;;;5.13;3.20;;;;;;;;;;4984813;28;20591;-56
2022/02/22 07:46:21;;;;;;;4.20;3.40;;;;;;;;;;4994383;28;20096;-57
2022/02/22 07:48:46;;;;;;;4.57;3.30;;;;;;;;;;4995344;28;20046;-57
2022/02/22 07:51:16;;;;;;;4.15;3.33;;;;;;;;;;4992846;28;20075;-56
2022/02/22 07:53:41;;;;;;;;;;;;;;;;;;4994360;28;20022;-57
2022/02/22 07:56:06;;;;;;;3.85;2.90;;;;;;;;;;4994735;28;19924;-57
2022/02/22 07:58:31;;;;;;;4.13;3.40;;;;;;;;;;4996592;28;20025;-56
2022/02/22 08:00:57;;;;;;;4.37;3.23;;;;;;;;;;4988701;28;20041;-56
2022/02/22 08:03:22;;;;;;;5.20;3.40;;;;;;;;;;4985881;28;20257;-56
2022/02/22 08:05:47;;;;;;;4.03;3.13;;;;;;;;;;4987679;28;20029;-57
2022/02/22 08:08:12;;;;;;;3.90;3.10;;;;;;;;;;4990997;28;20026;-56
2022/02/22 08:10:37;;;;;;;4.60;3.20;;;;;;;;;;4989291;28;20048;-57
2022/02/22 08:13:03;;;;;;;4.20;3.10;;;;;;;;;;4990611;28;20309;-60
2022/02/22 08:15:28;;;;;;;4.53;3.25;;;;;;;;;;4965688;28;20549;-59
2022/02/22 08:17:53;;;;;;;3.80;2.83;;;;;;;;;;4993238;28;20030;-59
2022/02/22 08:20:18;;;;;;;4.40;2.83;;;;;;;;;;4988573;28;20035;-57
2022/02/22 08:22:44;;;;;;;3.97;2.90;;;;;;;;;;4983984;28;20791;-57
2022/02/22 08:25:09;;;;;;;4.87;3.37;;;;;;;;;;4979920;28;20568;-58
2022/02/22 08:27:35;;;;;;;3.73;2.83;;;;;;;;;;4985207;28;20026;-56
2022/02/22 08:30:00;;;;;;;3.75;2.92;;;;;;;;;;4985857;28;20485;-57
2022/02/22 08:32:25;;;;;;;3.90;2.85;;;;;;;;;;5000761;28;20060;-57
2022/02/22 08:34:51;;;;;;;4.57;3.10;;;;;;;;;;4997705;28;20030;-57
2022/02/22 08:37:16;;;;;;;4.05;3.10;;;;;;;;;;4993951;28;20305;-57
2022/02/22 08:39:41;;;;;;;3.17;2.70;;;;;;;;;;4998501;28;20460;-57
2022/02/22 08:42:09;;;;;;;3.40;2.73;;;;;;;;;;4995460;28;20031;-57
2022/02/22 08:44:35;;;;;;;4.18;2.90;;;;;;;;;;5000887;28;20273;-58
2022/02/22 08:47:00;;;;;;;3.47;2.70;;;;;;;;;;5002545;28;20428;-57
2022/02/22 08:49:25;;;;;;;4.60;3.08;;;;;;;;;;5002024;28;20057;-56
2022/02/22 08:51:50;;;;;;;4.10;3.00;;;;;;;;;;5001963;28;20037;-58
2022/02/22 08:54:16;;;;;;;3.30;2.50;;;;;;;;;;5001063;28;20080;-58
2022/02/22 08:56:41;;;;;;;3.28;2.60;;;;;;;;;;4980782;28;20030;-57
2022/02/22 08:59:06;;;;;;;3.60;2.90;;;;;;;;;;4984152;28;20053;-57
2022/02/22 09:01:31;;;;;;;3.88;2.92;;;;;;;;;;4983457;28;20026;-57
2022/02/22 09:03:57;;;;;;;3.47;2.77;;;;;;;;;;4984717;28;20105;-57
2022/02/22 09:06:24;;;;;;;3.17;2.65;;;;;;;;;;4981828;28;20331;-57
2022/02/22 09:08:49;;;;;;;3.67;2.75;;;;;;;;;;4984340;28;20085;-57
2022/02/22 09:11:14;;;;;;;3.50;2.50;;;;;;;;;;4981295;28;20037;-57
2022/02/22 09:13:39;;;;;;;3.30;2.47;;;;;;;;;;4980635;28;20519;-58
2022/02/22 09:16:05;;;;;;;4.40;2.70;;;;;;;;;;4981063;28;20033;-58
2022/02/22 09:18:30;;;;;;;3.67;2.60;;;;;;;;;;4988594;28;20018;-58
2022/02/22 09:20:55;;;;;;;4.77;2.77;;;;;;;;;;4985107;28;20760;-58
2022/02/22 09:23:20;;;;;;;3.90;2.70;;;;;;;;;;4987188;28;20309;-58
2022/02/22 09:25:45;;;;;;;4.03;2.80;;;;;;;;;;4979074;28;20077;-57
2022/02/22 09:28:11;;;;;;;4.17;2.80;;;;;;;;;;4983668;28;20030;-59
2022/02/22 09:30:36;;;;;;;3.50;2.78;;;;;;;;;;4980987;28;20297;-57
2022/02/22 09:33:01;;;;;;;3.17;2.45;;;;;;;;;;4985238;28;20109;-57
2022/02/22 09:35:27;;;;;;;3.47;2.55;;;;;;;;;;4979913;28;20014;-58
2022/02/22 09:37:53;;;;;;;3.95;2.90;;;;;;;;;;4983028;28;20038;-57
2022/02/22 09:40:18;;;;;;;3.75;2.50;;;;;;;;;;4979832;28;20049;-57
2022/02/22 09:42:43;;;;;;;3.53;3.00;;;;;;;;;;4981510;28;20026;-56
2022/02/22 09:45:09;;;;;;;4.20;2.80;;;;;;;;;;4985215;28;20056;-56
2022/02/22 09:47:34;;;;;;;4.47;2.78;;;;;;;;;;4987484;28;20289;-57
2022/02/22 09:49:59;;;;;;;4.22;2.63;;;;;;;;;;5000588;28;20443;-57
2022/02/22 09:52:25;;;;;;;2.87;2.17;;;;;;;;;;4994252;28;20029;-56
2022/02/22 09:54:50;;;;;;;3.57;2.70;;;;;;;;;;5000350;28;20328;-56
2022/02/22 09:57:15;;;;;;;4.37;2.87;;;;;;;;;;5000144;28;20265;-58
2022/02/22 09:59:40;;;;;;;4.95;2.60;;;;;;;;;;4992012;28;20280;-57
2022/02/22 10:02:06;;;;;;;4.10;2.90;;;;;;;;;;4980058;28;20030;-56
2022/02/22 10:04:40;;;;;;;3.58;2.58;;;;;;;;;;4980313;28;20340;-57
2022/02/22 10:07:07;;;;;;;3.83;2.63;;;;;;;;;;4947254;28;20591;-56
2022/02/22 10:09:32;;;;;;;4.05;2.35;;;;;;;;;;4980469;28;20147;-56
2022/02/22 10:11:58;;;;;;;4.10;2.50;;;;;;;;;;4980221;28;20034;-56
2022/02/22 10:14:24;;;;;;;4.65;2.80;;;;;;;;;;4979839;28;20030;-56
2022/02/22 10:16:49;;;;;;;4.50;2.50;;;;;;;;;;4980591;28;20036;-56
2022/02/22 10:19:15;;;;;;;3.42;2.55;;;;;;;;;;4982667;28;20033;-56
2022/02/22 10:21:47;;;;;;;3.55;2.45;;;;;;;;;;4995059;28;20034;-57
2022/02/22 10:24:12;;;;;;;4.03;2.50;;;;;;;;;;4991698;28;20061;-55
2022/02/22 10:26:37;;;;;;;4.30;2.60;;;;;;;;;;4999437;28;20049;-56
2022/02/22 10:29:18;;;;;;;3.83;2.67;;;;;;;;;;4999309;28;20024;-57
2022/02/22 10:31:44;;;;;;;4.22;2.45;;;;;;;;;;4980850;28;20040;-56
2022/02/22 10:34:10;;;;;;;4.35;2.55;;;;;;;;;;4998683;28;20022;-57
2022/02/22 10:36:42;;;;;;;4.53;2.92;;;;;;;;;;4991036;28;20017;-56
2022/02/22 10:39:08;;;;;;;3.42;2.60;;;;;;;;;;4999059;28;20508;-59
2022/02/22 10:41:33;;;;;;;4.05;2.65;;;;;;;;;;4999788;28;20033;-58
2022/02/22 10:43:59;;;;;;;4.40;2.55;;;;;;;;;;4981475;28;20065;-58
2022/02/22 10:46:25;;;;;;;3.92;2.63;;;;;;;;;;4997742;28;20026;-56
2022/02/22 10:48:58;;;;;;;4.63;2.75;;;;;;;;;;4999387;28;20042;-57
2022/02/22 10:51:23;;;;;;;3.67;2.60;;;;;;;;;;4999873;28;20038;-58
2022/02/22 10:53:49;;;;;;;3.83;2.90;;;;;;;;;;4978312;28;20033;-59
2022/02/22 10:56:15;;;;;;;3.25;2.55;;;;;;;;;;4995885;28;20018;-58
2022/02/22 10:58:40;;;;;;;3.88;2.65;;;;;;;;;;4985126;28;20575;-60
2022/02/22 11:01:09;;;;;;;3.05;2.30;;;;;;;;;;4997300;28;20332;-60
2022/02/22 11:03:35;;;;;;;3.38;2.28;;;;;;;;;;4992266;28;20534;-59
2022/02/22 11:06:00;;;;;;;3.53;2.60;;;;;;;;;;5001944;28;20033;-57
2022/02/22 11:08:26;;;;;;;3.30;2.43;;;;;;;;;;5002236;28;20010;-60
2022/02/22 11:10:56;;;;;;;3.70;2.58;;;;;;;;;;5002374;28;20422;-57
2022/02/22 11:13:25;;;;;;;4.10;2.50;;;;;;;;;;5001348;28;20360;-58
2022/02/22 11:15:50;;;;;;;3.45;2.53;;;;;;;;;;5002421;28;20022;-58
2022/02/22 11:18:15;;;;;;;2.87;2.20;;;;;;;;;;4983325;28;20664;-59
2022/02/22 11:20:41;;;;;;;3.43;2.70;;;;;;;;;;5002214;28;20571;-58
2022/02/22 11:23:09;;;;;;;3.17;2.20;;;;;;;;;;5001612;28;20285;-57
2022/02/22 11:25:34;;;;;;;3.53;2.55;;;;;;;;;;4997602;28;20075;-58
2022/02/22 11:28:04;;;;;;;3.38;2.35;;;;;;;;;;4986157;28;20073;-59
2022/02/22 11:30:29;;;;;;;3.35;2.38;;;;;;;;;;4968934;28;20493;-59
2022/02/22 11:32:58;;;;;;;4.07;2.40;;;;;;;;;;4994721;28;20029;-58
2022/02/22 11:35:24;;;;;;;3.67;2.33;;;;;;;;;;4986417;28;20117;-58
2022/02/22 11:37:50;;;;;;;3.72;2.30;;;;;;;;;;4986583;28;20105;-59
2022/02/22 11:40:22;;;;;;;3.42;2.30;;;;;;;;;;4986033;28;20121;-58
2022/02/22 11:42:47;;;;;;;4.05;2.70;;;;;;;;;;4976983;28;20150;-58
2022/02/22 11:45:12;;;;;;;3.57;2.60;;;;;;;;;;4990615;28;20030;-58
2022/02/22 11:47:38;;;;;;;4.32;2.83;;;;;;;;;;4985612;28;20054;-59
2022/02/22 11:50:10;;;;;;;3.67;2.45;;;;;;;;;;4985052;28;20025;-58
2022/02/22 11:52:42;;;;;;;3.00;2.28;;;;;;;;;;4985736;28;20335;-59
2022/02/22 11:55:08;;;;;;;4.07;2.60;;;;;;;;;;4987336;28;20770;-59
2022/02/22 11:57:53;;;;;;;4.45;2.75;;;;;;;;;;4985083;28;20109;-59
2022/02/22 12:00:19;;;;;;;4.25;2.70;;;;;;;;;;4987116;28;20026;-59
2022/02/22 12:02:45;;;;;;;3.42;2.40;;;;;;;;;;4993347;28;20044;-58
2022/02/22 12:05:23;;;;;;;3.47;2.25;;;;;;;;;;4975305;28;20053;-59
2022/02/22 12:08:01;;;;;;;3.53;2.55;;;;;;;;;;4993686;28;20030;-60
2022/02/22 12:10:28;;;;;;;3.88;2.50;;;;;;;;;;4993885;28;20038;-59
2022/02/22 12:13:14;;;;;;;3.47;2.63;;;;;;;;;;5000937;28;20026;-59
2022/02/22 12:15:40;;;;;;;5.70;2.80;;;;;;;;;;4983860;28;20049;-59
2022/02/22 12:18:12;;;;;;;3.95;2.55;;;;;;;;;;4984667;28;20168;-59
2022/02/22 12:20:37;;;;;;;4.22;2.95;;;;;;;;;;4986583;28;20045;-59
2022/02/22 12:23:02;;;;;;;3.63;2.37;;;;;;;;;;4966418;28;20030;-57
2022/02/22 12:25:28;;;;;;;3.43;2.63;;;;;;;;;;4982844;28;20273;-59
2022/02/22 12:28:00;;;;;;;3.60;2.38;;;;;;;;;;4982461;28;20856;-57
2022/02/22 12:30:35;;;;;;;3.97;2.78;;;;;;;;;;4984895;28;20651;-58
2022/02/22 12:33:01;;;;;;;4.50;2.70;;;;;;;;;;4983441;28;20034;-59
2022/02/22 12:35:34;;;;;;;4.25;2.65;;;;;;;;;;4979742;28;20028;-58
2022/02/22 12:37:59;;;;;;;3.72;2.50;;;;;;;;;;4982559;28;20025;-58
2022/02/22 12:40:31;;;;;;;4.53;2.88;;;;;;;;;;4983200;28;20394;-60
2022/02/22 12:43:03;;;;;;;5.05;2.70;;;;;;;;;;4981555;28;20032;-58
2022/02/22 12:45:33;;;;;;;3.70;2.63;;;;;;;;;;4986710;28;20030;-58
2022/02/22 12:47:58;;;;;;;3.72;2.42;;;;;;;;;;4983563;28;20100;-60
2022/02/22 12:50:24;;;;;;;3.58;2.88;;;;;;;;;;4994919;28;20484;-59
2022/02/22 12:52:53;;;;;;;3.78;2.33;;;;;;;;;;5002065;28;20030;-64
2022/02/22 12:55:19;;;;;;;4.90;2.70;;;;;;;;;;5001909;28;20846;-59
2022/02/22 12:57:45;;;;;;;4.47;2.50;;;;;;;;;;5001496;28;20022;-61
2022/02/22 13:00:10;;;;;;;4.15;2.33;;;;;;;;;;5002509;28;20040;-64
2022/02/22 13:02:35;;;;;;;3.92;2.50;;;;;;;;;;4991441;28;20021;-56
2022/02/22 13:05:01;;;;;;;4.43;2.60;;;;;;;;;;4985223;28;20061;-58
2022/02/22 13:07:27;;;;;;;3.27;2.43;;;;;;;;;;4983408;28;20026;-58
2022/02/22 13:09:52;;;;;;;3.92;2.67;;;;;;;;;;4983568;28;20301;-59
2022/02/22 13:12:25;;;;;;;3.83;2.70;;;;;;;;;;4968598;28;20041;-57
2022/02/22 13:14:50;;;;;;;4.63;2.53;;;;;;;;;;4983228;28;20028;-58
2022/02/22 13:17:15;;;;;;;4.37;2.50;;;;;;;;;;4983876;28;20575;-59
2022/02/22 13:19:42;;;;;;;4.65;3.00;;;;;;;;;;4982805;28;20297;-60
2022/02/22 13:22:08;;;;;;;3.85;2.53;;;;;;;;;;4982571;28;20571;-58
2022/02/22 13:24:34;;;;;;;3.72;2.60;;;;;;;;;;4981448;28;20026;-60
2022/02/22 13:26:59;;;;;;;3.22;2.30;;;;;;;;;;4981144;28;20504;-58
2022/02/22 13:29:28;;;;;;;3.63;2.30;;;;;;;;;;4977299;28;20026;-59
2022/02/22 13:32:03;;;;;;;4.13;2.40;;;;;;;;;;4967418;28;20033;-58
2022/02/22 13:34:31;;;;;;;3.38;2.33;;;;;;;;;;4983115;28;20025;-58
2022/02/22 13:36:57;;;;;;;3.75;2.25;;;;;;;;;;4981259;28;20050;-59
2022/02/22 13:39:24;;;;;;;3.72;2.60;;;;;;;;;;4981315;28;20105;-58
2022/02/22 13:41:50;;;;;;;3.92;2.30;;;;;;;;;;4981427;28;20026;-58
2022/02/22 13:44:15;;;;;;;4.47;2.45;;;;;;;;;;4983678;28;20037;-58
2022/02/22 13:46:41;;;;;;;4.00;2.53;;;;;;;;;;4981664;28;20040;-58
2022/02/22 13:49:07;;;;;;;3.92;2.40;;;;;;;;;;4981796;28;20112;-58
2022/02/22 13:51:39;;;;;;;4.50;2.70;;;;;;;;;;4983073;28;20113;-57
2022/02/22 13:54:04;;;;;;;3.55;2.40;;;;;;;;;;4982118;28;20489;-59
2022/02/22 13:56:30;;;;;;;3.65;2.60;;;;;;;;;;4981329;28;20026;-59
2022/02/22 13:59:05;;;;;;;3.97;2.45;;;;;;;;;;4983512;28;20037;-57
2022/02/22 14:01:30;;;;;;;3.83;2.42;;;;;;;;;;4983025;28;20022;-58
2022/02/22 14:03:56;;;;;;;3.90;2.37;;;;;;;;;;4989436;28;20037;-56
2022/02/22 14:06:21;;;;;;;4.17;2.43;;;;;;;;;;4999584;28;20276;-57
2022/02/22 14:08:47;;;;;;;3.50;2.40;;;;;;;;;;4980360;28;20026;-57
2022/02/22 14:11:13;;;;;;;3.60;2.30;;;;;;;;;;4980583;28;20293;-58
2022/02/22 14:13:39;;;;;;;3.85;2.17;;;;;;;;;;4980192;28;20030;-57
2022/02/22 14:16:04;;;;;;;3.42;2.20;;;;;;;;;;4965996;28;20027;-58
2022/02/22 14:18:30;;;;;;;2.90;2.20;;;;;;;;;;4980589;28;20543;-58
2022/02/22 14:20:55;;;;;;;3.67;2.40;;;;;;;;;;4983573;28;20260;-58
2022/02/22 14:23:20;;;;;;;3.93;2.30;;;;;;;;;;4980747;28;20205;-58
2022/02/22 14:25:45;;;;;;;3.67;1.98;;;;;;;;;;4981053;28;20200;-58
2022/02/22 14:28:10;;;;;;;4.03;2.50;;;;;;;;;;4982193;28;20117;-58
2022/02/22 14:30:36;;;;;;;3.57;2.37;;;;;;;;;;4994233;28;20118;-56
2022/02/22 14:33:01;;;;;;;3.55;2.38;;;;;;;;;;4983888;28;20037;-55
2022/02/22 14:35:26;;;;;;;4.15;2.00;;;;;;;;;;4978311;28;20146;-57